Tim Quigg — WDB6570 — position and weather

sailwx.info

Track history (hours):
 
Tides and Currents Weather Stations Pressure Air Temp Water Temp Dewpoint Dewpoint Depression Visibility Wind Speed Wind Dir Waves Ship Positions

Tim Quigg

More information available from US FCC via Universal Licensing System and Coast Guard Vessel Documentation Center.

Last reported at 2014-Aug-28 17:13 UTC. Time now 2014-Sep-22 10:16 UTC.
Position N 32°38' W 117°06'.
Warning: this ship's position is 24 days out of date.

; draft 7.5 m.

Type: Tug. MMSI: 366926740.

Date/timePositionNaut miles runAvg speedWind from/ knotsBaromVisibWave heightAir tempDewpointWater temp
2014-Aug-28 17:13N 32°38' W 117°06'0 0.6
2014-Aug-28 16:33N 32°38' W 117°07'5 5.1
2014-Aug-28 15:31N 32°42' W 117°10'6 5.6
2014-Aug-28 14:31N 32°39' W 117°16'7 7.1
2014-Aug-28 13:33N 32°44' W 117°21'8 7.7
2014-Aug-28 12:33N 32°50' W 117°27'7 7.3
2014-Aug-28 11:34N 32°56' W 117°32'7 7.5
2014-Aug-28 10:33N 33°02' W 117°37'8 7.9
2014-Aug-28 09:33N 33°08' W 117°43'8 7.9
2014-Aug-28 08:33N 33°14' W 117°49'8 8.1
2014-Aug-28 07:33N 33°21' W 117°55'8 7.6
2014-Aug-28 06:30N 33°27' W 118°01'6 6.2
2014-Aug-28 05:33N 33°32' W 118°04'10 7.9
2014-Aug-28 04:17N 33°40' W 118°12'5 6.9
2014-Aug-28 03:32N 33°44' W 118°16'0 0.0
2014-Aug-28 02:33N 33°44' W 118°16'0 0.0
2014-Aug-28 00:21N 33°44' W 118°16'0 0.0
2014-Aug-27 22:05N 33°44' W 118°16'0 0.0
2014-Aug-27 21:18N 33°44' W 118°16'0 0.0
2014-Aug-27 20:20N 33°44' W 118°16'0 0.0
2014-Aug-27 19:33N 33°44' W 118°16'0 0.0
2014-Aug-27 18:33N 33°44' W 118°16'0 0.0
2014-Aug-27 17:16N 33°44' W 118°16'0 0.0
2014-Aug-27 15:33N 33°44' W 118°16'0 0.0
2014-Aug-27 14:33N 33°44' W 118°16'0 0.0
2014-Aug-27 13:09N 33°44' W 118°16'0 0.0
2014-Aug-27 12:33N 33°44' W 118°16'0 0.0
2014-Aug-27 11:33N 33°44' W 118°16'0 0.0
2014-Aug-27 09:26N 33°44' W 118°16'0 0.0
2014-Aug-27 08:33N 33°44' W 118°16'0 0.0
2014-Aug-27 07:33N 33°44' W 118°16'0 0.0
2014-Aug-27 06:33N 33°44' W 118°16'0 0.0
2014-Aug-27 05:33N 33°44' W 118°16'0 0.0
2014-Aug-27 04:33N 33°44' W 118°16'0 0.0
2014-Aug-27 03:33N 33°44' W 118°16'0 0.0
2014-Aug-27 02:33N 33°44' W 118°16'0 0.0
2014-Aug-27 01:33N 33°44' W 118°16'0 0.0
2014-Aug-27 00:33N 33°44' W 118°16'0 0.0
2014-Aug-26 23:33N 33°44' W 118°16'0 0.0
2014-Aug-26 22:32N 33°44' W 118°16'0 0.0
2014-Aug-26 21:33N 33°44' W 118°16'0 0.2
2014-Aug-26 20:34N 33°44' W 118°15'0 0.1
2014-Aug-26 19:33N 33°44' W 118°16'1 0.3
2014-Aug-26 17:33N 33°43' W 118°16'1 0.3
2014-Aug-26 15:10N 33°44' W 118°16'0 0.0
2014-Aug-26 12:05N 33°44' W 118°16'0 0.0
2014-Aug-26 06:04N 33°44' W 118°16'0 0.0
2014-Aug-26 05:33N 33°44' W 118°16'1 0.8
2014-Aug-26 04:33N 33°43' W 118°16'1 0.8
2014-Aug-26 03:33N 33°44' W 118°16'0 0.0
2014-Aug-25 14:13N 33°44' W 118°16'2 0.5
2014-Aug-25 11:08N 33°45' W 118°16'0 0.1
2014-Aug-25 07:14N 33°46' W 118°16'2 1.7
2014-Aug-25 06:05N 33°44' W 118°16'0 0.0
2014-Aug-25 05:32N 33°44' W 118°16'0 0.0
2014-Aug-25 04:33N 33°44' W 118°16'0 0.0
2014-Aug-25 03:26N 33°44' W 118°16'0 0.1
2014-Aug-25 02:32N 33°44' W 118°16'0 0.1
2014-Aug-25 01:33N 33°44' W 118°16'4 3.6
2014-Aug-25 00:33N 33°44' W 118°11'1 1.0
2014-Aug-24 23:25N 33°45' W 118°12'1 1.2
2014-Aug-24 22:20N 33°44' W 118°12'0 0.5
2014-Aug-24 21:33N 33°44' W 118°12'3 2.9
2014-Aug-24 20:33N 33°44' W 118°16'3 2.8
2014-Aug-24 19:32N 33°45' W 118°13'3 0.9
2014-Aug-24 16:29N 33°44' W 118°16'0 0.0
2014-Aug-24 15:19N 33°44' W 118°16'1 0.4
2014-Aug-24 11:23N 33°45' W 118°16'1 0.5
2014-Aug-24 10:23N 33°45' W 118°16'1 1.4
2014-Aug-24 09:23N 33°44' W 118°16'0 0.0
2014-Aug-24 07:22N 33°44' W 118°16'0 0.0
2014-Aug-24 06:33N 33°44' W 118°16'0 0.0
2014-Aug-24 05:21N 33°44' W 118°16'0 0.0
2014-Aug-24 04:33N 33°44' W 118°16'0 0.0
2014-Aug-24 03:33N 33°44' W 118°16'0 0.0
2014-Aug-24 02:33N 33°44' W 118°16'0 0.0
2014-Aug-24 01:33N 33°44' W 118°16'0 0.0
2014-Aug-24 00:33N 33°44' W 118°16'0 0.0
2014-Aug-23 23:33N 33°44' W 118°16'0 0.0
2014-Aug-23 22:33N 33°44' W 118°16'24 1.1
2014-Aug-23 01:30N 33°27' W 117°56'12 9.5
2014-Aug-23 00:12N 33°17' W 117°47'6 9.5
2014-Aug-22 23:33N 33°12' W 117°43'9 8.9
2014-Aug-22 22:33N 33°04' W 117°37'9 8.9
2014-Aug-22 21:33N 32°57' W 117°32'9 9.2
2014-Aug-22 20:33N 32°49' W 117°26'9 8.9
2014-Aug-22 19:33N 32°42' W 117°20'5 4.9
2014-Aug-22 18:33N 32°41' W 117°14'  
2014-Aug-19 16:23N 32°43' W 117°13'4 4.0
2014-Aug-19 15:22N 32°40' W 117°17'7 8.2
2014-Aug-19 14:33N 32°44' W 117°22'8 8.1
2014-Aug-19 13:33N 32°51' W 117°28'8 7.9
2014-Aug-19 12:33N 32°57' W 117°34'8 8.2
2014-Aug-19 11:34N 33°04' W 117°40'8 8.2
2014-Aug-19 10:33N 33°10' W 117°46'8 8.1
2014-Aug-19 09:33N 33°17' W 117°51'8 7.7
2014-Aug-19 08:33N 33°23' W 117°56'10 8.0
2014-Aug-19 07:15N 33°31' W 118°04'6 8.0
2014-Aug-19 06:27N 33°37' W 118°09'8 8.1
2014-Aug-19 05:29N 33°42' W 118°15'2 1.6
2014-Aug-19 04:32N 33°44' W 118°16'0 0.0
2014-Aug-19 03:33N 33°44' W 118°16'0 0.0
2014-Aug-19 02:33N 33°44' W 118°16'0 0.0
2014-Aug-19 01:33N 33°44' W 118°16'0 0.0
2014-Aug-19 00:33N 33°44' W 118°16'0 0.0
2014-Aug-18 23:31N 33°44' W 118°16'0 0.0
2014-Aug-18 22:34N 33°44' W 118°16'0 0.0
2014-Aug-18 21:33N 33°44' W 118°16'0 0.0
2014-Aug-18 20:34N 33°44' W 118°16'0 0.0
2014-Aug-18 19:34N 33°44' W 118°16'0 0.0
2014-Aug-18 17:24N 33°44' W 118°16'  
Track history (hours):
 
Tides and Currents Weather Stations Pressure Air Temp Water Temp Dewpoint Dewpoint Depression Visibility Wind Speed Wind Dir Waves Ship Positions

Tim Quigg

More information available from US FCC via Universal Licensing System and Coast Guard Vessel Documentation Center.

Last reported at 2014-Aug-28 17:13 UTC. Time now 2014-Sep-22 10:16 UTC.
Position N 32°38' W 117°06'.
Warning: this ship's position is 24 days out of date.

; draft 7.5 m.

Type: Tug. MMSI: 366926740.

Date/timePositionNaut miles runAvg speedWind from/ knotsBaromVisibWave heightAir tempDewpointWater temp
2014-Aug-28 17:13N 32°38' W 117°06'0 0.6
2014-Aug-28 16:33N 32°38' W 117°07'5 5.1
2014-Aug-28 15:31N 32°42' W 117°10'6 5.6
2014-Aug-28 14:31N 32°39' W 117°16'7 7.1
2014-Aug-28 13:33N 32°44' W 117°21'8 7.7
2014-Aug-28 12:33N 32°50' W 117°27'7 7.3
2014-Aug-28 11:34N 32°56' W 117°32'7 7.5
2014-Aug-28 10:33N 33°02' W 117°37'8 7.9
2014-Aug-28 09:33N 33°08' W 117°43'8 7.9
2014-Aug-28 08:33N 33°14' W 117°49'8 8.1
2014-Aug-28 07:33N 33°21' W 117°55'8 7.6
2014-Aug-28 06:30N 33°27' W 118°01'6 6.2
2014-Aug-28 05:33N 33°32' W 118°04'10 7.9
2014-Aug-28 04:17N 33°40' W 118°12'5 6.9
2014-Aug-28 03:32N 33°44' W 118°16'0 0.0
2014-Aug-28 02:33N 33°44' W 118°16'0 0.0
2014-Aug-28 00:21N 33°44' W 118°16'0 0.0
2014-Aug-27 22:05N 33°44' W 118°16'0 0.0
2014-Aug-27 21:18N 33°44' W 118°16'0 0.0
2014-Aug-27 20:20N 33°44' W 118°16'0 0.0
2014-Aug-27 19:33N 33°44' W 118°16'0 0.0
2014-Aug-27 18:33N 33°44' W 118°16'0 0.0
2014-Aug-27 17:16N 33°44' W 118°16'0 0.0
2014-Aug-27 15:33N 33°44' W 118°16'0 0.0
2014-Aug-27 14:33N 33°44' W 118°16'0 0.0
2014-Aug-27 13:09N 33°44' W 118°16'0 0.0
2014-Aug-27 12:33N 33°44' W 118°16'0 0.0
2014-Aug-27 11:33N 33°44' W 118°16'0 0.0
2014-Aug-27 09:26N 33°44' W 118°16'0 0.0
2014-Aug-27 08:33N 33°44' W 118°16'0 0.0
2014-Aug-27 07:33N 33°44' W 118°16'0 0.0
2014-Aug-27 06:33N 33°44' W 118°16'0 0.0
2014-Aug-27 05:33N 33°44' W 118°16'0 0.0
2014-Aug-27 04:33N 33°44' W 118°16'0 0.0
2014-Aug-27 03:33N 33°44' W 118°16'0 0.0
2014-Aug-27 02:33N 33°44' W 118°16'0 0.0
2014-Aug-27 01:33N 33°44' W 118°16'0 0.0
2014-Aug-27 00:33N 33°44' W 118°16'0 0.0
2014-Aug-26 23:33N 33°44' W 118°16'0 0.0
2014-Aug-26 22:32N 33°44' W 118°16'0 0.0
2014-Aug-26 21:33N 33°44' W 118°16'0 0.2
2014-Aug-26 20:34N 33°44' W 118°15'0 0.1
2014-Aug-26 19:33N 33°44' W 118°16'1 0.3
2014-Aug-26 17:33N 33°43' W 118°16'1 0.3
2014-Aug-26 15:10N 33°44' W 118°16'0 0.0
2014-Aug-26 12:05N 33°44' W 118°16'0 0.0
2014-Aug-26 06:04N 33°44' W 118°16'0 0.0
2014-Aug-26 05:33N 33°44' W 118°16'1 0.8
2014-Aug-26 04:33N 33°43' W 118°16'1 0.8
2014-Aug-26 03:33N 33°44' W 118°16'0 0.0
2014-Aug-25 14:13N 33°44' W 118°16'2 0.5
2014-Aug-25 11:08N 33°45' W 118°16'0 0.1
2014-Aug-25 07:14N 33°46' W 118°16'2 1.7
2014-Aug-25 06:05N 33°44' W 118°16'0 0.0
2014-Aug-25 05:32N 33°44' W 118°16'0 0.0
2014-Aug-25 04:33N 33°44' W 118°16'0 0.0
2014-Aug-25 03:26N 33°44' W 118°16'0 0.1
2014-Aug-25 02:32N 33°44' W 118°16'0 0.1
2014-Aug-25 01:33N 33°44' W 118°16'4 3.6
2014-Aug-25 00:33N 33°44' W 118°11'1 1.0
2014-Aug-24 23:25N 33°45' W 118°12'1 1.2
2014-Aug-24 22:20N 33°44' W 118°12'0 0.5
2014-Aug-24 21:33N 33°44' W 118°12'3 2.9
2014-Aug-24 20:33N 33°44' W 118°16'3 2.8
2014-Aug-24 19:32N 33°45' W 118°13'3 0.9
2014-Aug-24 16:29N 33°44' W 118°16'0 0.0
2014-Aug-24 15:19N 33°44' W 118°16'1 0.4
2014-Aug-24 11:23N 33°45' W 118°16'1 0.5
2014-Aug-24 10:23N 33°45' W 118°16'1 1.4
2014-Aug-24 09:23N 33°44' W 118°16'0 0.0
2014-Aug-24 07:22N 33°44' W 118°16'0 0.0
2014-Aug-24 06:33N 33°44' W 118°16'0 0.0
2014-Aug-24 05:21N 33°44' W 118°16'0 0.0
2014-Aug-24 04:33N 33°44' W 118°16'0 0.0
2014-Aug-24 03:33N 33°44' W 118°16'0 0.0
2014-Aug-24 02:33N 33°44' W 118°16'0 0.0
2014-Aug-24 01:33N 33°44' W 118°16'0 0.0
2014-Aug-24 00:33N 33°44' W 118°16'0 0.0
2014-Aug-23 23:33N 33°44' W 118°16'0 0.0
2014-Aug-23 22:33N 33°44' W 118°16'24 1.1
2014-Aug-23 01:30N 33°27' W 117°56'12 9.5
2014-Aug-23 00:12N 33°17' W 117°47'6 9.5
2014-Aug-22 23:33N 33°12' W 117°43'9 8.9
2014-Aug-22 22:33N 33°04' W 117°37'9 8.9
2014-Aug-22 21:33N 32°57' W 117°32'9 9.2
2014-Aug-22 20:33N 32°49' W 117°26'9 8.9
2014-Aug-22 19:33N 32°42' W 117°20'5 4.9
2014-Aug-22 18:33N 32°41' W 117°14'  
2014-Aug-19 16:23N 32°43' W 117°13'4 4.0
2014-Aug-19 15:22N 32°40' W 117°17'7 8.2
2014-Aug-19 14:33N 32°44' W 117°22'8 8.1
2014-Aug-19 13:33N 32°51' W 117°28'8 7.9
2014-Aug-19 12:33N 32°57' W 117°34'8 8.2
2014-Aug-19 11:34N 33°04' W 117°40'8 8.2
2014-Aug-19 10:33N 33°10' W 117°46'8 8.1
2014-Aug-19 09:33N 33°17' W 117°51'8 7.7
2014-Aug-19 08:33N 33°23' W 117°56'10 8.0
2014-Aug-19 07:15N 33°31' W 118°04'6 8.0
2014-Aug-19 06:27N 33°37' W 118°09'8 8.1
2014-Aug-19 05:29N 33°42' W 118°15'2 1.6
2014-Aug-19 04:32N 33°44' W 118°16'0 0.0
2014-Aug-19 03:33N 33°44' W 118°16'0 0.0
2014-Aug-19 02:33N 33°44' W 118°16'0 0.0
2014-Aug-19 01:33N 33°44' W 118°16'0 0.0
2014-Aug-19 00:33N 33°44' W 118°16'0 0.0
2014-Aug-18 23:31N 33°44' W 118°16'0 0.0
2014-Aug-18 22:34N 33°44' W 118°16'0 0.0
2014-Aug-18 21:33N 33°44' W 118°16'0 0.0
2014-Aug-18 20:34N 33°44' W 118°16'0 0.0
2014-Aug-18 19:34N 33°44' W 118°16'0 0.0
2014-Aug-18 17:24N 33°44' W 118°16'  

Dump ship's entire track history